Attapulgus, Georgia
Current Conditions -  °F | °C
As of 1:15 AM on Wednesday 26 Nov 2014 (Local Time) from K2J9 Reporting Station
Overcast Overcast  
Wind Chill: 44°   Ceiling: 600
Heat Index: 46°   Visibility: 3mi
Dew Point: 45°   Wind: 6mph
Humidity: 93%   Direction: 360°N
Pressure: 30.04"   Gusts: NA
Location:  30.75°N, 84.48°W
Report Text: K2J9 260615Z AUTO 36005KT 3SM BKN006 BKN022 OVC028 08/07 A3004 RMK AO1
Loading
Personal Weather Stations






























Interactive Weather Map New forecast layout! Learn more

10-Day Weather Forecast

Advertisements
Track Severe Weather on mobile